createdAt,value
2022-10-14T00:01:43.616Z,334.85
2022-10-14T00:04:09.942Z,135.23
2022-10-14T00:06:36.328Z,104.15
2022-10-14T00:09:06.706Z,106.43
2022-10-14T00:11:33.998Z,100.37
2022-10-14T00:14:06.617Z,166.65
2022-10-14T00:16:36.333Z,579.60
2022-10-14T00:19:04.108Z,200.90
2022-10-14T00:21:30.540Z,460.40
2022-10-14T00:23:57.712Z,478.55
2022-10-14T00:26:27.552Z,628.65
2022-10-14T00:28:54.684Z,422.42
2022-10-14T00:31:21.218Z,341.52
2022-10-14T00:33:48.097Z,320.02
2022-10-14T00:36:17.245Z,286.23
2022-10-14T00:38:45.355Z,364.40
2022-10-14T00:41:14.090Z,270.45
2022-10-14T00:44:00.086Z,409.00
2022-10-14T00:46:29.881Z,272.88
2022-10-14T00:48:57.521Z,181.75
2022-10-14T00:51:24.334Z,253.82
2022-10-14T00:53:51.166Z,232.65
2022-10-14T00:56:22.109Z,291.48
2022-10-14T00:58:48.506Z,194.63
2022-10-14T01:01:14.964Z,198.88
2022-10-14T01:03:41.954Z,146.35
2022-10-14T01:06:14.306Z,269.20
2022-10-14T01:08:48.995Z,268.17
2022-10-14T01:11:33.967Z,263.75
2022-10-14T01:14:15.430Z,230.18
2022-10-14T01:16:57.422Z,102.90
2022-10-14T01:19:57.898Z,147.77
2022-10-14T01:22:35.366Z,235.63
2022-10-14T01:25:15.382Z,259.13
2022-10-14T01:28:07.621Z,300.17
2022-10-14T01:30:42.389Z,152.63
2022-10-14T01:33:18.469Z,193.40
2022-10-14T01:35:56.704Z,137.98
2022-10-14T01:38:29.150Z,118.57
2022-10-14T01:41:03.006Z,146.55
2022-10-14T01:43:32.063Z,135.35
2022-10-14T01:46:02.283Z,110.25
2022-10-14T01:48:32.985Z,90.97
2022-10-14T01:51:03.129Z,142.68
2022-10-14T01:53:36.124Z,61.22
2022-10-14T01:56:03.899Z,72.85
2022-10-14T01:58:31.709Z,71.03
2022-10-14T02:00:58.129Z,87.72
2022-10-14T02:03:24.480Z,74.32
2022-10-14T02:06:03.680Z,60.63
2022-10-14T02:08:45.258Z,53.97
2022-10-14T02:11:15.697Z,50.50
2022-10-14T02:13:59.960Z,62.22
2022-10-14T02:16:41.278Z,62.95
2022-10-14T02:21:46.106Z,60.70
2022-10-14T02:24:15.176Z,64.18
2022-10-14T02:26:43.251Z,63.60
2022-10-14T02:29:09.753Z,84.47
2022-10-14T02:31:39.706Z,53.72
2022-10-14T02:34:09.403Z,61.80
2022-10-14T02:36:36.810Z,72.78
2022-10-14T02:39:04.258Z,80.88
2022-10-14T02:41:35.086Z,82.80
2022-10-14T02:44:01.962Z,101.40
2022-10-14T02:46:29.088Z,57.47
2022-10-14T02:48:55.459Z,76.25
2022-10-14T02:51:21.924Z,78.88
2022-10-14T02:53:48.305Z,65.75
2022-10-14T02:56:16.500Z,79.32
2022-10-14T02:58:42.855Z,70.15
2022-10-14T03:01:09.415Z,87.35
2022-10-14T03:03:36.201Z,66.65
2022-10-14T03:06:02.748Z,62.17
2022-10-14T03:08:29.170Z,62.50
2022-10-14T03:10:55.538Z,77.90
2022-10-14T03:13:21.915Z,62.25
2022-10-14T03:15:50.261Z,56.47
2022-10-14T03:18:17.089Z,74.00
2022-10-14T03:20:47.249Z,52.67
2022-10-14T03:23:14.548Z,60.97
2022-10-14T03:25:44.055Z,49.97
2022-10-14T03:28:10.947Z,46.97
2022-10-14T03:30:37.388Z,58.38
2022-10-14T03:33:03.972Z,48.85
2022-10-14T03:35:30.326Z,58.65
2022-10-14T03:37:56.711Z,51.40
2022-10-14T03:40:23.006Z,50.70
2022-10-14T03:42:49.667Z,51.05
2022-10-14T03:45:16.338Z,52.60
2022-10-14T03:47:42.718Z,50.60
2022-10-14T03:50:09.474Z,53.67
2022-10-14T03:52:36.143Z,50.70
2022-10-14T03:55:03.030Z,44.67
2022-10-14T03:57:29.367Z,51.90
2022-10-14T03:59:55.710Z,47.42
2022-10-14T04:02:22.438Z,51.40
2022-10-14T04:04:49.039Z,53.75
2022-10-14T04:07:15.334Z,45.15
2022-10-14T04:09:41.767Z,46.45
2022-10-14T04:12:08.156Z,44.72
2022-10-14T04:14:34.510Z,51.70
2022-10-14T04:17:00.803Z,48.53
2022-10-14T04:19:27.143Z,43.65
2022-10-14T04:21:53.445Z,52.17
2022-10-14T04:24:19.775Z,52.78
2022-10-14T04:26:46.095Z,44.08
2022-10-14T04:29:12.603Z,46.90
2022-10-14T04:31:38.907Z,49.38
2022-10-14T04:34:05.326Z,47.70
2022-10-14T04:36:31.712Z,52.03
2022-10-14T04:38:58.107Z,50.78
2022-10-14T04:41:24.449Z,50.17
2022-10-14T04:43:50.777Z,43.42
2022-10-14T04:46:17.399Z,46.08
2022-10-14T04:48:43.726Z,47.67
2022-10-14T04:51:10.619Z,50.60
2022-10-14T04:53:37.125Z,49.38
2022-10-14T04:56:03.547Z,46.92
2022-10-14T04:58:30.455Z,50.35
2022-10-14T05:00:56.885Z,45.17
2022-10-14T05:03:23.615Z,45.55
2022-10-14T05:05:50.813Z,46.35
2022-10-14T05:08:17.360Z,46.13
2022-10-14T05:10:43.908Z,43.80
2022-10-14T05:13:10.480Z,53.03
2022-10-14T05:15:36.823Z,51.33
2022-10-14T05:18:03.203Z,47.08
2022-10-14T05:20:29.540Z,39.40
2022-10-14T05:22:56.008Z,38.08
2022-10-14T05:25:22.356Z,40.90
2022-10-14T05:27:48.747Z,38.10
2022-10-14T05:30:15.315Z,37.28
2022-10-14T05:32:41.679Z,37.00
2022-10-14T05:35:08.894Z,46.17
2022-10-14T05:37:35.232Z,46.13
2022-10-14T05:40:01.619Z,44.65
2022-10-14T05:42:28.059Z,34.03
2022-10-14T05:44:54.378Z,40.78
2022-10-14T05:47:20.908Z,43.20
2022-10-14T05:49:47.307Z,39.85
2022-10-14T05:52:13.659Z,46.10
2022-10-14T05:54:40.055Z,44.72
2022-10-14T05:57:06.413Z,45.03
2022-10-14T05:59:34.645Z,49.38
2022-10-14T06:02:02.314Z,52.30
2022-10-14T06:04:28.700Z,47.47
2022-10-14T06:06:55.025Z,48.03
2022-10-14T06:09:21.776Z,49.42
2022-10-14T06:11:48.223Z,50.53
2022-10-14T06:14:14.865Z,44.15
2022-10-14T06:16:41.403Z,38.92
2022-10-14T06:19:07.807Z,49.15
2022-10-14T06:21:34.185Z,46.65
2022-10-14T06:24:00.541Z,52.88
2022-10-14T06:26:26.858Z,45.13
2022-10-14T06:28:53.253Z,50.25
2022-10-14T06:31:20.720Z,37.70
2022-10-14T06:33:47.063Z,48.45
2022-10-14T06:36:13.382Z,46.85
2022-10-14T06:38:40.411Z,36.90
2022-10-14T06:41:07.046Z,36.17
2022-10-14T06:43:35.130Z,39.65
2022-10-14T06:46:03.135Z,34.40
2022-10-14T06:48:29.517Z,34.25
2022-10-14T06:50:58.678Z,37.33
2022-10-14T06:53:25.012Z,39.88
2022-10-14T06:55:57.749Z,37.75
2022-10-14T06:58:24.115Z,36.45
2022-10-14T07:00:50.458Z,31.45
2022-10-14T07:03:17.309Z,28.15
2022-10-14T07:05:43.854Z,25.38
2022-10-14T07:08:14.519Z,27.83
2022-10-14T07:10:42.226Z,23.40
2022-10-14T07:13:08.550Z,22.42
2022-10-14T07:15:36.324Z,15.90
2022-10-14T07:18:04.548Z,18.30
2022-10-14T07:20:30.895Z,20.80
2022-10-14T07:22:57.485Z,17.58
2022-10-14T07:25:23.872Z,19.17
2022-10-14T07:27:53.127Z,14.63
2022-10-14T07:30:19.631Z,19.45
2022-10-14T07:32:45.980Z,12.45
2022-10-14T07:35:12.715Z,15.20
2022-10-14T07:37:39.226Z,14.80
2022-10-14T07:40:06.681Z,14.93
2022-10-14T07:42:34.168Z,15.43
2022-10-14T07:45:00.602Z,19.05
2022-10-14T07:47:26.951Z,15.32
2022-10-14T07:49:53.825Z,15.35
2022-10-14T07:52:20.239Z,14.45
2022-10-14T07:54:46.637Z,11.55
2022-10-14T07:57:13.010Z,14.93
2022-10-14T07:59:39.337Z,13.50
2022-10-14T08:02:05.712Z,12.93
2022-10-14T08:04:32.084Z,10.02
2022-10-14T08:06:58.556Z,12.32
2022-10-14T08:11:51.362Z,13.40
2022-10-14T08:14:17.765Z,13.10
2022-10-14T08:16:45.262Z,14.15
2022-10-14T08:19:14.539Z,13.38
2022-10-14T08:21:43.044Z,10.50
2022-10-14T08:24:10.015Z,11.50
2022-10-14T08:26:38.789Z,12.32
2022-10-14T08:29:09.878Z,12.07
2022-10-14T08:31:36.662Z,9.85
2022-10-14T08:34:03.233Z,12.38
2022-10-14T08:36:29.603Z,11.43
2022-10-14T08:38:56.331Z,11.85
2022-10-14T08:41:32.364Z,11.95
2022-10-14T08:44:09.453Z,11.15
2022-10-14T08:46:59.741Z,9.90
2022-10-14T08:50:01.372Z,14.18
2022-10-14T08:52:37.517Z,10.73
2022-10-14T08:55:21.846Z,11.52
2022-10-14T08:57:53.919Z,13.55
2022-10-14T09:00:21.856Z,12.40
2022-10-14T09:02:51.597Z,10.75
2022-10-14T09:05:25.090Z,9.70
2022-10-14T09:07:57.841Z,9.52
2022-10-14T09:10:39.393Z,9.63
2022-10-14T09:13:27.232Z,8.60
2022-10-14T09:16:01.896Z,8.65
2022-10-14T09:18:52.323Z,8.05
2022-10-14T09:21:47.839Z,8.68
2022-10-14T09:24:23.496Z,8.43
2022-10-14T09:27:17.609Z,8.57
2022-10-14T09:29:51.935Z,9.88
2022-10-14T09:32:29.590Z,7.82
2022-10-14T09:34:57.974Z,6.53
2022-10-14T09:37:29.976Z,8.23
2022-10-14T09:40:01.200Z,7.10
2022-10-14T09:45:09.960Z,7.05
2022-10-14T09:47:56.612Z,8.40
2022-10-14T09:50:44.197Z,7.72
2022-10-14T09:53:21.572Z,6.70
2022-10-14T09:55:52.321Z,7.47
2022-10-14T09:58:43.744Z,8.13
2022-10-14T10:03:47.424Z,6.82
2022-10-14T10:06:16.656Z,7.03
2022-10-14T10:08:57.328Z,6.00
2022-10-14T10:11:28.192Z,7.60
2022-10-14T10:13:54.871Z,7.72
2022-10-14T10:16:25.598Z,6.05
2022-10-14T10:18:55.113Z,6.57
2022-10-14T10:21:30.061Z,6.47
2022-10-14T10:24:03.166Z,6.65
2022-10-14T10:26:34.397Z,6.70
2022-10-14T10:31:53.599Z,7.07
2022-10-14T10:34:51.015Z,6.55
2022-10-14T10:37:17.310Z,6.93
2022-10-14T10:39:53.551Z,6.03
2022-10-14T10:42:26.984Z,7.35
2022-10-14T10:45:15.957Z,7.05
2022-10-14T10:48:51.128Z,8.55
2022-10-14T10:51:40.409Z,6.82
2022-10-14T10:54:20.190Z,7.85
2022-10-14T10:56:57.557Z,9.23
2022-10-14T10:59:43.218Z,6.32
2022-10-14T11:02:12.369Z,17.73
2022-10-14T11:04:47.875Z,8.90
2022-10-14T11:07:59.535Z,7.60
2022-10-14T11:10:53.638Z,7.65
2022-10-14T11:13:36.713Z,6.72
2022-10-14T11:16:08.942Z,7.05
2022-10-14T11:19:01.128Z,7.90
2022-10-14T11:21:39.155Z,8.57
2022-10-14T11:24:42.132Z,7.13
2022-10-14T11:27:24.901Z,10.35
2022-10-14T11:30:09.007Z,9.38
2022-10-14T11:33:00.408Z,8.48
2022-10-14T11:38:23.997Z,7.70
2022-10-14T11:41:05.673Z,7.60
2022-10-14T11:43:48.905Z,7.20
2022-10-14T11:46:21.292Z,7.82
2022-10-14T11:49:22.229Z,7.82
2022-10-14T11:51:57.479Z,7.20
2022-10-14T11:54:31.571Z,8.70
2022-10-14T11:57:07.437Z,7.47
2022-10-14T11:59:50.543Z,5.85
2022-10-14T12:02:28.596Z,5.68
2022-10-14T12:05:21.191Z,7.25
2022-10-14T12:08:09.059Z,5.90
2022-10-14T12:10:42.908Z,7.45
2022-10-14T12:13:15.467Z,6.63
2022-10-14T12:15:48.794Z,4.80
2022-10-14T12:18:15.111Z,4.53
2022-10-14T12:21:05.242Z,5.57
2022-10-14T12:23:37.798Z,6.55
2022-10-14T12:26:14.225Z,5.75
2022-10-14T12:28:41.015Z,5.93
2022-10-14T12:31:38.707Z,6.20
2022-10-14T12:34:11.398Z,3.85
2022-10-14T12:36:39.590Z,4.85
2022-10-14T12:39:18.120Z,4.15
2022-10-14T12:41:55.039Z,4.03
2022-10-14T12:44:32.494Z,4.82
2022-10-14T12:46:58.900Z,4.38
2022-10-14T12:49:31.271Z,4.85
2022-10-14T12:52:02.071Z,4.18
2022-10-14T12:54:30.270Z,4.75
2022-10-14T12:57:03.557Z,4.72
2022-10-14T12:59:33.442Z,6.30
2022-10-14T13:02:04.735Z,6.88
2022-10-14T13:04:32.512Z,4.72
2022-10-14T13:07:45.352Z,4.32
2022-10-14T13:10:47.829Z,4.15
2022-10-14T13:13:44.673Z,6.28
2022-10-14T13:16:31.225Z,4.60
2022-10-14T13:18:59.145Z,6.13
2022-10-14T13:21:34.774Z,4.90
2022-10-14T13:24:06.101Z,7.75
2022-10-14T13:26:37.934Z,4.65
2022-10-14T13:29:45.859Z,6.28
2022-10-14T13:32:33.456Z,6.53
2022-10-14T13:35:18.986Z,4.88
2022-10-14T13:37:58.298Z,5.90
2022-10-14T13:40:36.880Z,5.72
2022-10-14T13:43:13.188Z,6.05
2022-10-14T13:45:42.987Z,5.32
2022-10-14T13:48:16.751Z,6.18
2022-10-14T13:50:44.201Z,6.15
2022-10-14T13:53:19.111Z,7.25
2022-10-14T13:55:53.860Z,6.72
2022-10-14T13:58:22.707Z,6.43
2022-10-14T14:01:02.224Z,7.57
2022-10-14T14:03:31.213Z,6.30
2022-10-14T14:05:59.308Z,8.13
2022-10-14T14:08:44.846Z,7.38
2022-10-14T14:11:19.277Z,5.78
2022-10-14T14:14:00.655Z,6.70
2022-10-14T14:16:52.124Z,6.03
2022-10-14T14:19:29.160Z,7.53
2022-10-14T14:22:13.854Z,6.38
2022-10-14T14:24:40.312Z,8.90
2022-10-14T14:27:12.845Z,6.57
2022-10-14T14:29:42.676Z,6.78
2022-10-14T14:32:16.104Z,7.15
2022-10-14T14:34:45.383Z,8.23
2022-10-14T14:37:44.042Z,7.53
2022-10-14T14:40:17.833Z,9.48
2022-10-14T14:42:59.728Z,8.95
2022-10-14T14:45:33.761Z,7.60
2022-10-14T14:48:06.355Z,8.30
2022-10-14T14:50:36.577Z,8.02
2022-10-14T14:53:13.623Z,7.40
2022-10-14T14:56:07.977Z,6.80
2022-10-14T14:58:51.374Z,7.28
2022-10-14T15:01:28.828Z,6.40
2022-10-14T15:04:12.460Z,6.72
2022-10-14T15:06:40.749Z,6.93
2022-10-14T15:09:30.054Z,5.55
2022-10-14T15:12:00.313Z,5.55
2022-10-14T15:14:45.071Z,7.40
2022-10-14T15:17:38.924Z,7.00
2022-10-14T15:20:05.536Z,22.25
2022-10-14T15:22:36.708Z,11.13
2022-10-14T15:27:37.296Z,7.68
2022-10-14T15:30:17.812Z,7.40
2022-10-14T15:32:44.678Z,9.18
2022-10-14T15:35:19.681Z,11.90
2022-10-14T15:37:47.074Z,16.67
2022-10-14T15:40:18.935Z,10.60
2022-10-14T15:42:47.030Z,9.98
2022-10-14T15:45:14.127Z,8.98
2022-10-14T15:47:41.126Z,11.88
2022-10-14T15:50:19.374Z,11.50
2022-10-14T15:52:45.847Z,12.23
2022-10-14T15:55:19.536Z,10.98
2022-10-14T15:57:47.485Z,9.32
2022-10-14T16:00:14.256Z,11.90
2022-10-14T16:02:43.408Z,9.70
2022-10-14T16:05:25.659Z,12.93
2022-10-14T16:07:52.103Z,9.98
2022-10-14T16:10:21.830Z,13.05
2022-10-14T16:12:48.832Z,15.93
2022-10-14T16:15:32.074Z,13.75
2022-10-14T16:17:58.602Z,13.23
2022-10-14T16:20:25.395Z,14.02
2022-10-14T16:22:51.822Z,13.65
2022-10-14T16:25:40.132Z,12.50
2022-10-14T16:28:10.045Z,15.18
2022-10-14T16:30:39.466Z,17.65
2022-10-14T16:33:06.210Z,16.42
2022-10-14T16:35:32.780Z,23.38
2022-10-14T16:37:59.242Z,22.23
2022-10-14T16:40:25.907Z,17.52
2022-10-14T16:42:52.312Z,15.82
2022-10-14T16:45:18.664Z,20.88
2022-10-14T16:47:45.028Z,13.25
2022-10-14T16:50:12.210Z,14.93
2022-10-14T16:52:58.905Z,15.60
2022-10-14T16:55:27.436Z,18.73
2022-10-14T16:57:54.065Z,16.25
2022-10-14T17:00:20.412Z,14.82
2022-10-14T17:02:47.226Z,16.50
2022-10-14T17:05:14.194Z,17.80
2022-10-14T17:07:40.639Z,18.63
2022-10-14T17:10:07.501Z,18.90
2022-10-14T17:12:33.830Z,17.23
2022-10-14T17:15:00.274Z,24.27
2022-10-14T17:17:26.617Z,18.88
2022-10-14T17:19:55.543Z,18.60
2022-10-14T17:22:22.448Z,21.30
2022-10-14T17:24:50.122Z,21.30
2022-10-14T17:27:19.404Z,20.55
2022-10-14T17:29:45.962Z,21.42
2022-10-14T17:32:12.417Z,17.90
2022-10-14T17:34:38.715Z,20.92
2022-10-14T17:37:05.301Z,21.77
2022-10-14T17:39:31.805Z,22.35
2022-10-14T17:41:58.360Z,20.20
2022-10-14T17:44:24.782Z,22.20
2022-10-14T17:46:51.229Z,22.60
2022-10-14T17:49:17.578Z,22.88
2022-10-14T17:51:44.745Z,23.98
2022-10-14T17:54:12.046Z,22.85
2022-10-14T17:56:39.551Z,24.60
2022-10-14T17:59:10.283Z,24.60
2022-10-14T18:01:37.696Z,24.40
2022-10-14T18:04:23.051Z,27.02
2022-10-14T18:06:49.378Z,24.15
2022-10-14T18:09:15.790Z,23.77
2022-10-14T18:14:31.388Z,25.70
2022-10-14T18:16:59.112Z,24.48
2022-10-14T18:19:25.730Z,23.55
2022-10-14T18:21:52.810Z,24.02
2022-10-14T18:24:19.821Z,31.95
2022-10-14T18:26:48.975Z,26.02
2022-10-14T18:29:15.340Z,31.80
2022-10-14T18:31:41.858Z,29.02
2022-10-14T18:34:11.235Z,29.75
2022-10-14T18:36:37.942Z,26.33
2022-10-14T18:39:06.824Z,32.35
2022-10-14T18:41:33.674Z,31.02
2022-10-14T18:44:00.357Z,31.65
2022-10-14T18:46:29.102Z,30.30
2022-10-14T18:48:58.015Z,28.65
2022-10-14T18:51:29.199Z,25.88
2022-10-14T18:56:41.531Z,25.33
2022-10-14T18:59:10.987Z,29.90
2022-10-14T19:01:39.097Z,28.60
2022-10-14T19:04:08.267Z,27.95
2022-10-14T19:06:35.264Z,33.33
2022-10-14T19:09:02.069Z,28.15
2022-10-14T19:11:32.595Z,30.27
2022-10-14T19:14:03.193Z,28.13
2022-10-14T19:16:32.316Z,31.88
2022-10-14T19:19:18.215Z,34.60
2022-10-14T19:21:47.491Z,29.75
2022-10-14T19:24:14.148Z,30.27
2022-10-14T19:26:43.353Z,33.25
2022-10-14T19:29:12.691Z,30.17
2022-10-14T19:31:39.945Z,27.98
2022-10-14T19:34:08.751Z,26.77
2022-10-14T19:36:37.883Z,27.63
2022-10-14T19:39:05.255Z,26.65
2022-10-14T19:41:33.781Z,29.67
2022-10-14T19:44:00.622Z,31.88
2022-10-14T19:46:28.796Z,27.13
2022-10-14T19:48:57.523Z,25.02
2022-10-14T19:51:24.265Z,26.88
2022-10-14T19:53:51.439Z,26.67
2022-10-14T19:56:17.805Z,27.60
2022-10-14T19:58:45.016Z,29.38
2022-10-14T20:01:14.597Z,28.92
2022-10-14T20:03:41.970Z,30.67
2022-10-14T20:06:09.753Z,31.95
2022-10-14T20:08:38.151Z,29.95
2022-10-14T20:11:07.453Z,29.90
2022-10-14T20:13:34.197Z,30.75
2022-10-14T20:16:02.033Z,32.58
2022-10-14T20:18:29.669Z,32.38
2022-10-14T20:20:56.826Z,30.60
2022-10-14T20:23:24.492Z,34.05
2022-10-14T20:25:50.891Z,34.50
2022-10-14T20:28:19.533Z,37.70
2022-10-14T20:30:47.208Z,30.27
2022-10-14T20:33:14.294Z,33.42
2022-10-14T20:35:40.768Z,33.03
2022-10-14T20:38:07.132Z,35.55
2022-10-14T20:40:34.949Z,34.50
2022-10-14T20:43:02.000Z,32.33
2022-10-14T20:45:28.365Z,34.78
2022-10-14T20:47:54.763Z,36.78
2022-10-14T20:50:22.267Z,36.58
2022-10-14T20:52:49.206Z,35.10
2022-10-14T20:55:15.790Z,36.28
2022-10-14T20:57:42.182Z,32.78
2022-10-14T21:00:09.769Z,33.83
2022-10-14T21:02:36.359Z,31.45
2022-10-14T21:05:02.839Z,29.30
2022-10-14T21:07:29.186Z,33.17
2022-10-14T21:09:55.556Z,31.02
2022-10-14T21:12:22.180Z,39.13
2022-10-14T21:14:48.760Z,33.42
2022-10-14T21:17:15.110Z,34.00
2022-10-14T21:19:41.471Z,36.00
2022-10-14T21:22:09.203Z,43.33
2022-10-14T21:24:36.142Z,41.97
2022-10-14T21:27:02.560Z,33.00
2022-10-14T21:29:28.909Z,33.67
2022-10-14T21:31:55.286Z,40.33
2022-10-14T21:34:24.609Z,34.33
2022-10-14T21:36:50.974Z,32.90
2022-10-14T21:39:18.004Z,34.88
2022-10-14T21:41:44.975Z,35.97
2022-10-14T21:44:15.689Z,36.20
2022-10-14T21:46:42.063Z,33.00
2022-10-14T21:49:10.583Z,39.03
2022-10-14T21:51:37.402Z,38.92
2022-10-14T21:54:04.184Z,32.35
2022-10-14T21:56:30.766Z,37.30
2022-10-14T21:58:57.663Z,36.92
2022-10-14T22:01:29.806Z,35.72
2022-10-14T22:04:03.448Z,37.78
2022-10-14T22:06:32.270Z,35.10
2022-10-14T22:08:59.952Z,30.75
2022-10-14T22:11:34.967Z,39.17
2022-10-14T22:14:03.323Z,34.38
2022-10-14T22:16:30.366Z,34.83
2022-10-14T22:18:59.748Z,33.90
2022-10-14T22:21:28.579Z,35.63
2022-10-14T22:23:55.039Z,35.53
2022-10-14T22:26:25.000Z,37.45
2022-10-14T22:29:00.149Z,33.05
2022-10-14T22:31:27.849Z,34.28
2022-10-14T22:33:54.638Z,30.35
2022-10-14T22:36:24.339Z,33.72
2022-10-14T22:38:52.860Z,32.67
2022-10-14T22:41:19.913Z,37.63
2022-10-14T22:43:48.146Z,37.65
2022-10-14T22:46:16.190Z,35.13
2022-10-14T22:48:42.840Z,41.90
2022-10-14T22:51:14.608Z,40.70
2022-10-14T22:53:42.512Z,36.22
2022-10-14T22:56:11.251Z,42.65
2022-10-14T22:58:37.896Z,39.03
2022-10-14T23:01:09.020Z,42.45
2022-10-14T23:06:05.113Z,34.60
2022-10-14T23:08:32.744Z,44.95
2022-10-14T23:10:59.689Z,52.22
2022-10-14T23:13:26.160Z,46.75
2022-10-14T23:16:03.164Z,36.40
2022-10-14T23:18:31.743Z,43.03
2022-10-14T23:20:58.214Z,45.70
2022-10-14T23:23:24.674Z,38.45
2022-10-14T23:25:51.060Z,41.05
2022-10-14T23:28:17.465Z,37.45
2022-10-14T23:30:43.835Z,38.38
2022-10-14T23:33:11.702Z,48.08
2022-10-14T23:35:38.804Z,41.95
2022-10-14T23:38:05.242Z,40.10
2022-10-14T23:40:31.619Z,42.13
2022-10-14T23:42:58.230Z,39.13
2022-10-14T23:45:24.640Z,38.70
2022-10-14T23:47:50.967Z,36.50
2022-10-14T23:50:17.504Z,39.75
2022-10-14T23:52:46.871Z,33.15
2022-10-14T23:55:14.178Z,40.10
2022-10-14T23:57:40.501Z,36.70
